Time;durP1;ratioP1;P1;durP2;ratioP2;P2;SDS_P1;SDS_P2;PMS_P1;PMS_P2;Temp;Humidity;BMP_temperature;BMP_pressure;BME280_temperature;BME280_humidity;BME280_pressure;Samples;Min_cycle;Max_cycle;Signal;HPM_P1;HPM_P2
2023/03/13 00:01:09;;;;;;;32.35;5.70;;;8.70;99.90;;;;;;5016797;28;20476;-61
2023/03/13 00:03:35;;;;;;;31.52;5.82;;;8.70;99.90;;;;;;5028311;28;20093;-61
2023/03/13 00:06:01;;;;;;;31.38;5.93;;;8.70;99.90;;;;;;5024076;23;20037;-57
2023/03/13 00:08:30;;;;;;;32.47;7.10;;;8.80;99.90;;;;;;5004873;28;20064;-57
2023/03/13 00:10:55;;;;;;;44.55;6.80;;;8.70;99.90;;;;;;5022753;28;20069;-57
2023/03/13 00:13:22;;;;;;;34.38;6.55;;;8.80;99.90;;;;;;5016029;28;20437;-57
2023/03/13 00:15:47;;;;;;;37.00;6.30;;;8.70;99.90;;;;;;5003476;28;20049;-58
2023/03/13 00:18:13;;;;;;;35.65;7.55;;;8.80;99.90;;;;;;5026305;28;20040;-58
2023/03/13 00:20:39;;;;;;;37.50;6.93;;;8.80;99.90;;;;;;5036611;28;20040;-58
2023/03/13 00:23:05;;;;;;;32.58;7.43;;;8.80;99.90;;;;;;5037759;28;20037;-57
2023/03/13 00:25:30;;;;;;;35.08;6.88;;;8.80;99.90;;;;;;5028197;28;20053;-58
2023/03/13 00:27:56;;;;;;;37.53;6.43;;;8.80;99.90;;;;;;5020311;28;20041;-56
2023/03/13 00:30:22;;;;;;;35.63;7.72;;;8.80;99.90;;;;;;5039583;28;20041;-58
2023/03/13 00:32:48;;;;;;;27.80;6.25;;;8.80;99.90;;;;;;5043851;28;20040;-58
2023/03/13 00:35:14;;;;;;;40.60;7.43;;;8.80;99.90;;;;;;5042438;28;20115;-57
2023/03/13 00:37:40;;;;;;;35.38;6.63;;;8.80;99.90;;;;;;5035920;28;20102;-58
2023/03/13 00:40:07;;;;;;;34.65;6.63;;;8.80;99.90;;;;;;5031585;28;20400;-58
2023/03/13 00:42:33;;;;;;;31.30;7.82;;;8.80;99.90;;;;;;5015319;28;20036;-56
2023/03/13 00:44:59;;;;;;;29.10;7.07;;;8.80;99.90;;;;;;5033634;28;20052;-57
2023/03/13 00:47:25;;;;;;;29.50;6.32;;;8.70;99.90;;;;;;5022901;28;20037;-57
2023/03/13 00:49:51;;;;;;;33.47;7.32;;;8.80;99.90;;;;;;5028305;28;20076;-57
2023/03/13 00:52:17;;;;;;;43.70;7.97;;;8.70;99.90;;;;;;5006667;28;20048;-56
2023/03/13 00:54:42;;;;;;;30.63;7.10;;;8.80;99.90;;;;;;5013247;28;20131;-57
2023/03/13 00:57:08;;;;;;;39.40;9.93;;;8.80;99.90;;;;;;5043201;28;20049;-57
2023/03/13 00:59:34;;;;;;;29.05;6.50;;;8.80;99.90;;;;;;5032610;28;20041;-57
2023/03/13 01:02:00;;;;;;;30.27;7.25;;;8.80;99.90;;;;;;5026017;28;20235;-57
2023/03/13 01:04:26;;;;;;;33.42;6.43;;;8.80;99.90;;;;;;5035624;28;20098;-56
2023/03/13 01:06:51;;;;;;;34.78;7.90;;;8.80;99.90;;;;;;5038838;28;20048;-56
2023/03/13 01:09:18;;;;;;;26.08;6.53;;;8.80;99.90;;;;;;5010905;28;20053;-57
2023/03/13 01:11:44;;;;;;;35.03;6.90;;;8.80;99.90;;;;;;5031853;28;20049;-57
2023/03/13 01:14:16;;;;;;;35.08;7.35;;;8.80;99.90;;;;;;5020236;28;20037;-57
2023/03/13 01:16:42;;;;;;;31.08;7.00;;;8.80;99.90;;;;;;5033597;28;20052;-56
2023/03/13 01:19:13;;;;;;;32.92;7.18;;;8.80;99.90;;;;;;5006753;28;20059;-57
2023/03/13 01:21:40;;;;;;;27.17;6.57;;;8.80;99.90;;;;;;5036949;28;20427;-57
2023/03/13 01:24:06;;;;;;;33.08;6.68;;;8.80;99.90;;;;;;5026644;28;20048;-57
2023/03/13 01:26:32;;;;;;;29.02;6.68;;;8.80;99.90;;;;;;5024835;28;20094;-57
2023/03/13 01:28:58;;;;;;;40.28;7.88;;;8.90;99.90;;;;;;5040063;28;20678;-57
2023/03/13 01:31:26;;;;;;;28.58;6.53;;;8.80;99.90;;;;;;5038952;28;20087;-56
2023/03/13 01:33:55;;;;;;;33.45;7.57;;;8.80;99.90;;;;;;5038624;28;20037;-56
2023/03/13 01:36:22;;;;;;;32.85;7.18;;;8.90;99.90;;;;;;5035019;28;20115;-56
2023/03/13 01:38:49;;;;;;;29.13;7.38;;;8.90;99.90;;;;;;5018074;28;20036;-57
2023/03/13 01:41:15;;;;;;;34.20;7.90;;;8.90;99.90;;;;;;5039645;28;20038;-56
2023/03/13 01:43:41;;;;;;;29.48;8.70;;;8.90;99.90;;;;;;5041706;28;20059;-57
2023/03/13 01:46:08;;;;;;;39.85;7.88;;;8.90;99.90;;;;;;5037812;28;20127;-57
2023/03/13 01:48:37;;;;;;;29.58;7.38;;;8.90;99.90;;;;;;5014125;28;20041;-57
2023/03/13 01:51:20;;;;;;;37.00;8.35;;;8.90;99.90;;;;;;5042984;28;20036;-57
2023/03/13 01:53:50;;;;;;;39.17;8.10;;;8.90;99.90;;;;;;5014560;28;20657;-57
2023/03/13 01:56:24;;;;;;;33.67;7.30;;;8.90;99.90;;;;;;5040331;28;20037;-57
2023/03/13 01:58:50;;;;;;;39.95;8.88;;;9.00;99.90;;;;;;5021588;28;20036;-56
2023/03/13 02:01:18;;;;;;;35.80;8.90;;;8.90;99.90;;;;;;5044745;28;20433;-56
2023/03/13 02:03:45;;;;;;;40.70;9.05;;;8.90;99.90;;;;;;5035364;28;20044;-57
2023/03/13 02:06:11;;;;;;;26.98;7.88;;;8.90;99.90;;;;;;5028506;28;20095;-57
2023/03/13 02:08:39;;;;;;;33.58;8.57;;;8.90;99.90;;;;;;5037868;28;20037;-55
2023/03/13 02:11:18;;;;;;;31.27;8.45;;;8.90;99.90;;;;;;5030826;28;20115;-57
2023/03/13 02:13:45;;;;;;;26.23;8.27;;;8.90;99.90;;;;;;5032446;28;20076;-57
2023/03/13 02:16:11;;;;;;;24.23;7.65;;;8.90;99.90;;;;;;5036838;28;20048;-57
2023/03/13 02:18:37;;;;;;;27.90;8.30;;;8.90;99.90;;;;;;5033009;28;20342;-57
2023/03/13 02:21:12;;;;;;;25.65;8.48;;;8.90;99.90;;;;;;5040540;28;20029;-57
2023/03/13 02:23:50;;;;;;;25.38;8.13;;;8.90;99.90;;;;;;5036167;28;20041;-57
2023/03/13 02:26:16;;;;;;;24.60;7.63;;;9.10;99.90;;;;;;5040805;28;20124;-57
2023/03/13 02:28:42;;;;;;;26.45;7.85;;;8.90;99.90;;;;;;5034933;28;20112;-57
2023/03/13 02:31:09;;;;;;;18.85;7.10;;;9.00;99.90;;;;;;5042007;28;20045;-56
2023/03/13 02:33:40;;;;;;;21.85;6.97;;;9.00;99.90;;;;;;5033240;28;20095;-56
2023/03/13 02:36:07;;;;;;;19.17;6.85;;;9.00;99.90;;;;;;5034623;28;20045;-56
2023/03/13 02:38:38;;;;;;;21.08;6.82;;;9.00;99.90;;;;;;5038459;28;20037;-57
2023/03/13 02:41:05;;;;;;;19.40;6.47;;;9.00;99.90;;;;;;5035873;28;20088;-56
2023/03/13 02:43:34;;;;;;;17.17;5.90;;;9.00;99.90;;;;;;5024152;28;20123;-56
2023/03/13 02:46:01;;;;;;;18.58;6.38;;;9.00;99.90;;;;;;5033742;28;20494;-56
2023/03/13 02:48:50;;;;;;;13.45;6.43;;;9.10;99.90;;;;;;5041731;28;20075;-57
2023/03/13 02:51:24;;;;;;;16.50;5.80;;;9.10;99.90;;;;;;5018127;28;20056;-55
2023/03/13 02:53:51;;;;;;;;;;;9.10;99.90;;;;;;5023963;28;20045;-56
2023/03/13 02:56:21;;;;;;;15.32;5.88;;;9.10;99.90;;;;;;5042848;28;20504;-56
2023/03/13 02:58:47;;;;;;;16.33;6.22;;;9.10;99.90;;;;;;5039666;28;20045;-57
2023/03/13 03:01:12;;;;;;;12.15;5.45;;;9.20;99.90;;;;;;5046139;28;20175;-57
2023/03/13 03:03:38;;;;;;;17.40;5.85;;;9.20;99.90;;;;;;5017967;28;20042;-57
2023/03/13 03:06:05;;;;;;;14.02;5.90;;;9.20;99.90;;;;;;5015183;28;20461;-57
2023/03/13 03:08:31;;;;;;;13.95;6.05;;;9.20;99.90;;;;;;5043362;28;20077;-54
2023/03/13 03:10:57;;;;;;;14.55;6.70;;;9.20;99.90;;;;;;5032820;28;22046;-57
2023/03/13 03:13:23;;;;;;;10.15;5.80;;;9.30;99.90;;;;;;5017879;28;20528;-56
2023/03/13 03:15:48;;;;;;;13.38;5.88;;;9.20;99.90;;;;;;5035975;28;20047;-57
2023/03/13 03:18:14;;;;;;;14.48;6.45;;;9.20;99.90;;;;;;5044386;28;20033;-57
2023/03/13 03:20:40;;;;;;;13.18;6.30;;;9.30;99.90;;;;;;5036836;28;20045;-57
2023/03/13 03:23:05;;;;;;;13.73;6.47;;;9.30;99.90;;;;;;5039772;28;20064;-57
2023/03/13 03:25:31;;;;;;;13.77;6.75;;;9.30;99.90;;;;;;5041994;28;20037;-57
2023/03/13 03:27:57;;;;;;;14.65;6.88;;;9.30;99.90;;;;;;5034734;28;20048;-57
2023/03/13 03:30:22;;;;;;;11.32;6.32;;;9.30;99.90;;;;;;5036002;28;20073;-57
2023/03/13 03:32:48;;;;;;;11.90;6.13;;;9.30;99.90;;;;;;5054795;28;20037;-57
2023/03/13 03:35:14;;;;;;;7.63;5.97;;;9.40;99.90;;;;;;5044546;28;20033;-57
2023/03/13 03:37:40;;;;;;;10.63;5.90;;;9.50;99.90;;;;;;5038186;28;20044;-57
2023/03/13 03:40:06;;;;;;;11.90;5.90;;;9.50;99.90;;;;;;5025721;28;20041;-56
2023/03/13 03:42:33;;;;;;;9.20;5.93;;;9.50;99.90;;;;;;5026897;28;20052;-57
2023/03/13 03:44:58;;;;;;;8.85;5.72;;;9.50;99.90;;;;;;5037694;28;20069;-57
2023/03/13 03:47:24;;;;;;;8.55;5.65;;;9.60;99.90;;;;;;5022506;28;20076;-57
2023/03/13 03:49:50;;;;;;;12.30;6.57;;;9.60;99.90;;;;;;5024061;28;20049;-58
2023/03/13 03:52:16;;;;;;;13.57;6.50;;;9.60;99.90;;;;;;5036584;28;20559;-57
2023/03/13 03:54:41;;;;;;;11.77;6.88;;;9.60;99.90;;;;;;5058619;28;20080;-57
2023/03/13 03:57:07;;;;;;;10.85;6.95;;;9.60;99.90;;;;;;5038501;28;20041;-57
2023/03/13 03:59:33;;;;;;;10.98;6.93;;;9.70;99.90;;;;;;5024307;28;20124;-56
2023/03/13 04:01:59;;;;;;;10.70;7.25;;;9.70;99.90;;;;;;5035944;28;20045;-57
2023/03/13 04:04:24;;;;;;;10.73;8.05;;;9.70;99.90;;;;;;5042888;28;20211;-56
2023/03/13 04:06:50;;;;;;;14.95;9.00;;;9.90;99.90;;;;;;5022120;28;20044;-57
2023/03/13 04:09:16;;;;;;;15.27;10.43;;;9.90;99.90;;;;;;5020607;28;20097;-57
2023/03/13 04:11:42;;;;;;;19.33;11.27;;;10.00;99.90;;;;;;5034812;28;20492;-57
2023/03/13 04:14:08;;;;;;;21.50;11.95;;;10.20;99.90;;;;;;5041739;28;20047;-56
2023/03/13 04:16:34;;;;;;;20.85;11.35;;;10.20;99.90;;;;;;5030818;28;20057;-57
2023/03/13 04:18:59;;;;;;;21.13;12.00;;;10.20;99.90;;;;;;5032181;28;20060;-57
2023/03/13 04:21:25;;;;;;;20.35;12.10;;;10.10;99.90;;;;;;5034821;28;20485;-57
2023/03/13 04:23:51;;;;;;;22.88;12.70;;;10.10;99.90;;;;;;5018524;28;20351;-56
2023/03/13 04:26:16;;;;;;;21.17;12.63;;;10.10;99.90;;;;;;5039370;28;20038;-57
2023/03/13 04:28:42;;;;;;;24.92;12.98;;;10.10;99.90;;;;;;5021168;28;20412;-57
2023/03/13 04:31:08;;;;;;;21.85;12.52;;;10.10;99.90;;;;;;5040650;28;20041;-57
2023/03/13 04:33:35;;;;;;;22.98;12.80;;;10.20;99.90;;;;;;5011395;28;20029;-57
2023/03/13 04:36:01;;;;;;;25.52;12.82;;;10.20;99.90;;;;;;5033233;28;20222;-57
2023/03/13 04:38:27;;;;;;;20.95;12.00;;;10.20;99.90;;;;;;5019166;28;20036;-57
2023/03/13 04:40:53;;;;;;;22.67;12.70;;;10.20;99.90;;;;;;5034916;28;20096;-57
2023/03/13 04:43:19;;;;;;;22.17;11.90;;;10.20;99.90;;;;;;5030012;28;20032;-56
2023/03/13 04:45:45;;;;;;;25.15;13.15;;;10.30;99.90;;;;;;5036909;28;20048;-56
2023/03/13 04:48:11;;;;;;;25.13;12.52;;;10.30;99.90;;;;;;5043519;28;20443;-56
2023/03/13 04:50:37;;;;;;;23.75;11.32;;;10.30;99.90;;;;;;5035051;28;20033;-57
2023/03/13 04:53:03;;;;;;;28.25;11.05;;;10.30;99.90;;;;;;5038132;28;20059;-57
2023/03/13 04:55:28;;;;;;;28.00;10.52;;;10.50;99.90;;;;;;5037061;28;20106;-56
2023/03/13 04:57:54;;;;;;;26.10;9.70;;;10.50;99.90;;;;;;5041204;28;20037;-57
2023/03/13 05:00:20;;;;;;;25.33;8.90;;;10.60;99.90;;;;;;5038432;28;20044;-56
2023/03/13 05:02:46;;;;;;;29.73;10.18;;;10.70;99.90;;;;;;5038305;28;20048;-57
2023/03/13 05:05:11;;;;;;;22.20;9.32;;;10.80;99.90;;;;;;5039710;28;20047;-57
2023/03/13 05:07:37;;;;;;;23.77;10.32;;;10.80;99.90;;;;;;5038623;28;20063;-57
2023/03/13 05:10:03;;;;;;;23.20;10.93;;;10.80;99.90;;;;;;5041907;28;20048;-57
2023/03/13 05:12:29;;;;;;;20.23;9.23;;;10.90;99.90;;;;;;5027106;28;20032;-56
2023/03/13 05:14:55;;;;;;;19.70;8.70;;;10.90;99.90;;;;;;5021697;28;20625;-57
2023/03/13 05:17:20;;;;;;;23.02;8.52;;;10.90;99.90;;;;;;5043691;28;20098;-57
2023/03/13 05:19:46;;;;;;;19.10;7.65;;;10.90;99.90;;;;;;5016906;28;20052;-57
2023/03/13 05:22:12;;;;;;;18.88;7.95;;;11.00;99.90;;;;;;5036636;28;20032;-56
2023/03/13 05:24:37;;;;;;;18.88;7.95;;;11.00;99.90;;;;;;5030055;28;20041;-57
2023/03/13 05:27:03;;;;;;;17.80;7.65;;;11.00;99.90;;;;;;5014685;28;20128;-57
2023/03/13 05:29:29;;;;;;;20.45;7.22;;;11.10;99.90;;;;;;5021604;28;20547;-57
2023/03/13 05:31:55;;;;;;;18.13;7.72;;;11.10;99.90;;;;;;5060557;28;20249;-55
2023/03/13 05:34:21;;;;;;;17.88;7.60;;;11.10;99.90;;;;;;5014392;28;20045;-57
2023/03/13 05:36:46;;;;;;;18.60;7.95;;;11.10;99.90;;;;;;5036994;28;20037;-57
2023/03/13 05:39:12;;;;;;;17.80;9.07;;;11.20;99.90;;;;;;5031212;28;20072;-57
2023/03/13 05:41:38;;;;;;;17.13;8.90;;;11.20;99.90;;;;;;5006264;28;20041;-57
2023/03/13 05:44:04;;;;;;;22.70;7.90;;;11.20;99.90;;;;;;5043569;28;20041;-56
2023/03/13 05:46:29;;;;;;;24.52;9.23;;;11.20;99.90;;;;;;5021244;28;20129;-57
2023/03/13 05:48:55;;;;;;;16.15;6.82;;;11.20;99.90;;;;;;5026713;28;20045;-57
2023/03/13 05:51:21;;;;;;;19.08;6.97;;;11.20;99.90;;;;;;5034984;28;20272;-57
2023/03/13 05:53:47;;;;;;;19.83;8.38;;;11.20;99.90;;;;;;5015556;28;20140;-57
2023/03/13 05:56:13;;;;;;;23.15;9.05;;;11.20;99.90;;;;;;5023614;28;20219;-57
2023/03/13 05:58:38;;;;;;;25.25;8.93;;;11.20;99.90;;;;;;5042772;28;20120;-57
2023/03/13 06:01:10;;;;;;;28.00;11.40;;;11.30;99.90;;;;;;5019422;28;20041;-56
2023/03/13 06:03:35;;;;;;;27.45;10.38;;;11.30;99.90;;;;;;5029051;28;20135;-57
2023/03/13 06:06:01;;;;;;;21.00;8.98;;;11.30;99.90;;;;;;5037520;22;20355;-59
2023/03/13 06:08:28;;;;;;;29.77;9.07;;;11.30;99.90;;;;;;5019531;28;20069;-59
2023/03/13 06:10:53;;;;;;;22.85;8.18;;;11.30;99.90;;;;;;5015428;28;20032;-59
2023/03/13 06:13:19;;;;;;;23.35;7.57;;;11.40;99.90;;;;;;5015761;28;20034;-59
2023/03/13 06:15:52;;;;;;;18.52;6.15;;;11.40;99.90;;;;;;5005728;28;20136;-58
2023/03/13 06:18:18;;;;;;;21.98;6.38;;;11.40;99.90;;;;;;5016671;28;20041;-59
2023/03/13 06:20:44;;;;;;;22.35;5.93;;;11.40;99.90;;;;;;5013958;28;20420;-59
2023/03/13 06:23:10;;;;;;;19.88;5.50;;;11.40;99.90;;;;;;5022901;28;20037;-59
2023/03/13 06:25:35;;;;;;;14.82;5.05;;;11.40;99.90;;;;;;5018286;28;20132;-59
2023/03/13 06:28:01;;;;;;;14.05;4.57;;;11.50;99.90;;;;;;5016448;28;20132;-59
2023/03/13 06:30:27;;;;;;;22.75;5.30;;;11.50;99.90;;;;;;5012270;28;20056;-59
2023/03/13 06:32:52;;;;;;;22.23;5.25;;;11.60;99.90;;;;;;5004523;28;20117;-59
2023/03/13 06:35:18;;;;;;;17.52;4.53;;;11.60;99.90;;;;;;5032913;28;20036;-59
2023/03/13 06:37:44;;;;;;;17.10;4.70;;;11.60;99.90;;;;;;5017797;28;20047;-59
2023/03/13 06:40:10;;;;;;;17.80;4.70;;;11.70;99.90;;;;;;5019471;28;20476;-58
2023/03/13 06:42:36;;;;;;;22.13;5.30;;;11.70;99.90;;;;;;5014283;28;20077;-59
2023/03/13 06:45:02;;;;;;;17.95;6.28;;;11.70;99.90;;;;;;5036117;28;20077;-59
2023/03/13 06:47:31;;;;;;;14.10;4.57;;;11.70;99.90;;;;;;5009114;28;20084;-59
2023/03/13 06:49:57;;;;;;;20.60;4.93;;;11.70;99.90;;;;;;5013297;28;20484;-58
2023/03/13 06:52:23;;;;;;;17.95;5.05;;;11.70;99.90;;;;;;5019346;28;20038;-58
2023/03/13 06:54:49;;;;;;;21.95;5.57;;;11.70;99.90;;;;;;5017155;28;20026;-59
2023/03/13 06:57:14;;;;;;;20.00;5.15;;;11.70;99.90;;;;;;5018724;28;20102;-58
2023/03/13 06:59:40;;;;;;;25.55;6.18;;;11.70;99.90;;;;;;5013763;28;20036;-59
2023/03/13 07:02:07;;;;;;;17.30;4.85;;;11.70;99.90;;;;;;4998573;28;20045;-59
2023/03/13 07:04:33;;;;;;;14.80;5.45;;;11.80;99.90;;;;;;5009634;28;20500;-58
2023/03/13 07:06:59;;;;;;;16.13;5.22;;;11.80;99.90;;;;;;5014670;28;20044;-59
2023/03/13 07:09:25;;;;;;;19.02;5.22;;;11.80;99.90;;;;;;5025378;28;20064;-59
2023/03/13 07:11:50;;;;;;;20.88;5.22;;;11.80;99.90;;;;;;5020213;28;20038;-58
2023/03/13 07:14:16;;;;;;;14.73;4.60;;;11.80;99.90;;;;;;5008403;28;20041;-59
2023/03/13 07:16:42;;;;;;;17.50;5.28;;;11.80;99.90;;;;;;5017336;28;20220;-59
2023/03/13 07:19:08;;;;;;;32.05;8.30;;;11.80;99.90;;;;;;5026242;28;20550;-58
2023/03/13 07:21:33;;;;;;;20.98;4.70;;;11.80;99.90;;;;;;5022331;28;20045;-58
2023/03/13 07:23:59;;;;;;;20.92;5.88;;;11.80;99.90;;;;;;5019605;28;20558;-59
2023/03/13 07:26:25;;;;;;;14.15;4.25;;;11.80;99.90;;;;;;5027486;28;20110;-59
2023/03/13 07:28:50;;;;;;;14.23;4.80;;;11.70;99.90;;;;;;5017629;28;20034;-58
2023/03/13 07:31:20;;;;;;;16.00;4.65;;;11.80;99.90;;;;;;5008407;28;20154;-58
2023/03/13 07:33:46;;;;;;;16.85;4.57;;;11.80;99.90;;;;;;5018565;28;20041;-59
2023/03/13 07:36:14;;;;;;;13.38;4.20;;;11.80;99.90;;;;;;5019331;28;20065;-59
2023/03/13 07:38:41;;;;;;;16.48;4.55;;;11.80;99.90;;;;;;5022387;28;20072;-59
2023/03/13 07:41:10;;;;;;;14.48;4.55;;;11.80;99.90;;;;;;5006473;28;20045;-59
2023/03/13 07:43:35;;;;;;;11.98;3.85;;;11.70;99.90;;;;;;5023986;28;20037;-59
2023/03/13 07:46:03;;;;;;;16.83;4.68;;;11.80;99.90;;;;;;5024611;28;21553;-58
2023/03/13 07:48:38;;;;;;;15.38;5.00;;;11.70;99.90;;;;;;5021620;28;20087;-59
2023/03/13 07:51:06;;;;;;;20.85;4.68;;;11.80;99.90;;;;;;5021989;28;20481;-59
2023/03/13 07:53:33;;;;;;;20.45;4.72;;;11.80;99.90;;;;;;5022441;28;20056;-59
2023/03/13 07:56:01;;;;;;;17.08;4.97;;;11.80;99.90;;;;;;5023670;28;20244;-59
2023/03/13 07:58:29;;;;;;;14.38;4.70;;;11.80;99.90;;;;;;5017226;28;20049;-59
2023/03/13 08:00:56;;;;;;;16.90;4.57;;;11.70;99.90;;;;;;5021976;28;20045;-59
2023/03/13 08:03:23;;;;;;;18.98;5.50;;;11.80;99.90;;;;;;5018755;28;20060;-59
2023/03/13 08:06:03;;;;;;;19.70;4.43;;;11.80;99.90;;;;;;5021062;28;20481;-59
2023/03/13 08:08:29;;;;;;;17.50;4.35;;;11.80;99.90;;;;;;5016936;28;20108;-59
2023/03/13 08:11:04;;;;;;;13.27;4.72;;;11.80;99.90;;;;;;5025336;28;20530;-59
2023/03/13 08:13:31;;;;;;;15.20;3.60;;;11.80;99.90;;;;;;5021178;28;20096;-59
2023/03/13 08:16:14;;;;;;;15.45;4.40;;;11.80;99.90;;;;;;5011739;28;20132;-59
2023/03/13 08:18:42;;;;;;;16.50;5.10;;;11.90;99.90;;;;;;5019578;28;20038;-59
2023/03/13 08:21:10;;;;;;;12.95;3.72;;;12.00;99.90;;;;;;5004567;28;20591;-59
2023/03/13 08:23:37;;;;;;;13.85;4.10;;;12.00;99.90;;;;;;5008084;28;20069;-59
2023/03/13 08:26:14;;;;;;;12.77;3.65;;;12.20;99.90;;;;;;5009759;28;21183;-59
2023/03/13 08:28:41;;;;;;;11.40;3.30;;;12.30;99.90;;;;;;5016087;28;20049;-59
2023/03/13 08:31:14;;;;;;;14.18;3.83;;;12.40;99.90;;;;;;5008701;28;20037;-59
2023/03/13 08:33:42;;;;;;;12.87;3.43;;;12.60;99.90;;;;;;5021988;28;20034;-58
2023/03/13 08:36:10;;;;;;;9.23;3.42;;;12.60;99.90;;;;;;5024951;28;20038;-58
2023/03/13 08:38:36;;;;;;;13.77;3.42;;;12.70;99.90;;;;;;5018503;28;20041;-59
2023/03/13 08:41:02;;;;;;;13.75;3.78;;;12.70;99.90;;;;;;5018509;28;20117;-58
2023/03/13 08:43:28;;;;;;;11.45;3.03;;;12.80;99.90;;;;;;5021070;28;20049;-58
2023/03/13 08:45:55;;;;;;;15.32;3.10;;;12.90;99.90;;;;;;5021319;28;20310;-58
2023/03/13 08:48:21;;;;;;;12.55;2.90;;;13.00;99.90;;;;;;5023236;28;21040;-58
2023/03/13 08:50:47;;;;;;;10.05;3.58;;;13.00;99.90;;;;;;5016032;28;20048;-58
2023/03/13 08:53:12;;;;;;;12.75;2.60;;;13.00;99.90;;;;;;5003788;28;20042;-58
2023/03/13 08:55:38;;;;;;;12.90;3.88;;;13.10;99.90;;;;;;5024028;28;20068;-58
2023/03/13 08:58:04;;;;;;;13.98;3.47;;;13.10;99.90;;;;;;5014092;28;20069;-58
2023/03/13 09:00:29;;;;;;;11.80;2.97;;;13.00;99.90;;;;;;5021485;28;20041;-58
2023/03/13 09:02:58;;;;;;;10.68;3.17;;;12.90;99.90;;;;;;5018928;28;20067;-58
2023/03/13 09:05:24;;;;;;;12.50;2.88;;;12.80;99.90;;;;;;5024279;28;20037;-58
2023/03/13 09:07:49;;;;;;;15.77;3.90;;;12.70;99.90;;;;;;5029570;28;20037;-58
2023/03/13 09:10:15;;;;;;;11.55;3.15;;;12.70;99.90;;;;;;5019068;28;20118;-59
2023/03/13 09:12:41;;;;;;;11.98;3.08;;;12.60;99.90;;;;;;5024739;28;20037;-59
2023/03/13 09:15:07;;;;;;;9.50;3.53;;;12.70;99.90;;;;;;5023495;28;20038;-58
2023/03/13 09:17:33;;;;;;;12.13;2.80;;;12.60;99.90;;;;;;5020304;28;20056;-58
2023/03/13 09:19:59;;;;;;;13.10;3.78;;;12.70;99.90;;;;;;5016087;28;20045;-58
2023/03/13 09:22:24;;;;;;;14.70;3.30;;;12.70;99.90;;;;;;5020214;28;20048;-58
2023/03/13 09:24:50;;;;;;;14.77;3.63;;;12.70;99.90;;;;;;5021703;28;20492;-58
2023/03/13 09:27:16;;;;;;;17.33;4.18;;;12.60;99.90;;;;;;5024163;28;20073;-59
2023/03/13 09:29:41;;;;;;;16.52;3.92;;;12.50;99.90;;;;;;5020216;28;20041;-59
2023/03/13 09:32:09;;;;;;;18.17;4.35;;;12.40;99.90;;;;;;5012889;28;20209;-59
2023/03/13 09:34:35;;;;;;;14.75;3.42;;;12.30;99.90;;;;;;5022937;28;20033;-59
2023/03/13 09:37:01;;;;;;;19.73;4.07;;;12.20;99.90;;;;;;5005132;28;20048;-59
2023/03/13 09:39:26;;;;;;;20.92;4.43;;;12.20;99.90;;;;;;5011936;28;20504;-59
2023/03/13 09:42:02;;;;;;;17.27;4.20;;;12.10;99.90;;;;;;5000667;28;20041;-59
2023/03/13 09:44:35;;;;;;;12.93;3.55;;;12.20;99.90;;;;;;5024057;28;20033;-58
2023/03/13 09:47:36;;;;;;;16.83;3.50;;;12.30;99.90;;;;;;5015472;28;20167;-59
2023/03/13 09:50:13;;;;;;;13.18;3.00;;;12.60;99.90;;;;;;5001816;28;20034;-59
2023/03/13 09:52:39;;;;;;;11.10;3.53;;;12.80;99.90;;;;;;5015272;28;20045;-59
2023/03/13 09:55:20;;;;;;;16.38;3.75;;;13.00;99.90;;;;;;5016756;28;20049;-58
2023/03/13 09:57:54;;;;;;;15.70;3.75;;;13.10;99.90;;;;;;5021561;28;20055;-59
2023/03/13 10:00:28;;;;;;;16.83;3.92;;;13.30;99.90;;;;;;5017814;28;20103;-58
2023/03/13 10:03:11;;;;;;;18.90;3.83;;;13.50;99.90;;;;;;5026987;28;20410;-59
2023/03/13 10:05:42;;;;;;;13.95;3.85;;;13.50;99.90;;;;;;5013520;28;20057;-59
2023/03/13 10:08:20;;;;;;;18.45;3.38;;;13.70;99.90;;;;;;5014216;28;20129;-59
2023/03/13 10:11:18;;;;;;;13.80;3.55;;;13.80;99.90;;;;;;5018652;28;20042;-59
2023/03/13 10:14:17;;;;;;;19.48;4.70;;;13.90;99.90;;;;;;4968109;28;20089;-59
2023/03/13 10:17:09;;;;;;;17.75;4.25;;;14.00;99.90;;;;;;5012101;28;20445;-59
2023/03/13 10:19:38;;;;;;;21.48;4.72;;;14.20;99.90;;;;;;5014313;28;20042;-59
2023/03/13 10:22:15;;;;;;;16.67;3.92;;;14.30;99.90;;;;;;5013102;28;20057;-59
2023/03/13 10:25:04;;;;;;;16.23;3.67;;;14.20;99.90;;;;;;5018352;28;20051;-59
2023/03/13 10:27:30;;;;;;;19.30;3.83;;;14.30;99.90;;;;;;5010405;28;20120;-59
2023/03/13 10:29:55;;;;;;;21.25;4.30;;;14.40;99.90;;;;;;5009204;28;20101;-59
2023/03/13 10:32:21;;;;;;;22.25;4.38;;;14.40;99.90;;;;;;5009459;28;20038;-66
2023/03/13 10:35:02;;;;;;;19.08;4.38;;;14.40;99.90;;;;;;5013898;28;20056;-60
2023/03/13 10:37:39;;;;;;;23.48;5.90;;;14.50;99.90;;;;;;5017852;28;20044;-58
2023/03/13 10:40:21;;;;;;;20.20;4.80;;;14.60;99.90;;;;;;5017617;28;20084;-60
2023/03/13 10:42:47;;;;;;;21.08;4.75;;;14.60;99.90;;;;;;5018314;28;20053;-59
2023/03/13 10:45:17;;;;;;;26.08;4.78;;;14.60;99.90;;;;;;5039471;28;20053;-59
2023/03/13 10:47:43;;;;;;;25.17;5.13;;;14.60;99.90;;;;;;5019847;28;20038;-58
2023/03/13 10:50:22;;;;;;;23.65;5.45;;;14.70;99.90;;;;;;5026862;28;20120;-60
2023/03/13 10:52:50;;;;;;;18.42;4.50;;;14.70;99.90;;;;;;5016141;28;20092;-60
2023/03/13 10:55:21;;;;;;;21.63;4.82;;;14.70;99.90;;;;;;5016571;28;20128;-59
2023/03/13 10:58:02;;;;;;;14.20;4.07;;;14.80;99.90;;;;;;5016647;28;20048;-60
2023/03/13 11:00:38;;;;;;;21.30;5.22;;;14.90;99.90;;;;;;5023844;28;20496;-59
2023/03/13 11:03:12;;;;;;;21.38;5.28;;;15.00;99.90;;;;;;5018757;28;20050;-60
2023/03/13 11:05:42;;;;;;;15.05;3.47;;;15.00;99.90;;;;;;5016650;28;20033;-59
2023/03/13 11:08:23;;;;;;;16.55;4.00;;;15.00;99.90;;;;;;5022194;28;20176;-59
2023/03/13 11:11:01;;;;;;;14.38;3.80;;;15.00;99.90;;;;;;5014011;28;20037;-59
2023/03/13 11:13:28;;;;;;;16.25;3.53;;;15.00;99.90;;;;;;5020499;28;20042;-60
2023/03/13 11:15:59;;;;;;;15.93;3.85;;;14.90;99.90;;;;;;5023092;28;20142;-60
2023/03/13 11:19:11;;;;;;;14.43;3.40;;;14.70;99.90;;;;;;5018439;28;20041;-59
2023/03/13 11:21:50;;;;;;;16.52;3.47;;;14.60;99.90;;;;;;5014628;28;20045;-60
2023/03/13 11:24:43;;;;;;;13.93;3.78;;;14.50;99.90;;;;;;5015696;28;20111;-61
2023/03/13 11:27:23;;;;;;;16.85;3.30;;;14.40;99.90;;;;;;4988899;28;20050;-59
2023/03/13 11:29:52;;;;;;;19.23;4.60;;;14.50;99.90;;;;;;5021775;28;21304;-59
2023/03/13 11:32:38;;;;;;;18.20;4.03;;;14.60;99.90;;;;;;5016388;28;20081;-59
2023/03/13 11:35:26;;;;;;;14.00;2.88;;;14.60;99.90;;;;;;5021210;28;20046;-59
2023/03/13 11:37:56;;;;;;;20.25;3.90;;;14.60;99.90;;;;;;5017760;28;21625;-59
2023/03/13 11:40:35;;;;;;;22.30;4.20;;;14.50;99.90;;;;;;5009816;28;20072;-59
2023/03/13 11:43:04;;;;;;;18.70;3.90;;;14.40;99.90;;;;;;5014553;28;20285;-59
2023/03/13 11:46:00;;;;;;;24.33;5.13;;;14.60;99.90;;;;;;5015693;28;20050;-59
2023/03/13 11:48:34;;;;;;;15.68;3.55;;;14.80;99.90;;;;;;5015393;28;20046;-58
2023/03/13 11:51:25;;;;;;;18.88;4.97;;;14.90;99.90;;;;;;5018825;28;20033;-59
2023/03/13 11:54:14;;;;;;;13.70;3.47;;;14.90;99.90;;;;;;5009479;28;20080;-59
2023/03/13 11:56:48;;;;;;;17.58;4.63;;;14.90;99.90;;;;;;5019512;28;20043;-59
2023/03/13 11:59:40;;;;;;;17.88;3.75;;;15.10;99.90;;;;;;5017699;28;20041;-59
2023/03/13 12:02:27;;;;;;;18.70;5.00;;;15.10;99.90;;;;;;5012655;28;20136;-60
2023/03/13 12:05:08;;;;;;;18.02;4.38;;;15.10;99.90;;;;;;5021557;28;20192;-59
2023/03/13 12:08:11;;;;;;;19.90;4.97;;;14.80;99.90;;;;;;5039969;22;20079;-56
2023/03/13 12:10:42;;;;;;;17.20;4.60;;;14.80;99.90;;;;;;5020331;28;20518;-57
2023/03/13 12:13:33;;;;;;;21.95;4.53;;;14.60;99.90;;;;;;5016283;28;20052;-56
2023/03/13 12:16:06;;;;;;;23.20;5.13;;;14.70;99.90;;;;;;5004494;28;20045;-57
2023/03/13 12:18:41;;;;;;;20.63;5.90;;;14.60;99.90;;;;;;4998243;28;20526;-57
2023/03/13 12:21:27;;;;;;;20.33;4.72;;;14.60;99.90;;;;;;5039769;28;20045;-56
2023/03/13 12:24:18;;;;;;;25.27;5.55;;;14.50;99.90;;;;;;5018305;28;20048;-57
2023/03/13 12:27:01;;;;;;;20.15;5.15;;;14.60;99.90;;;;;;5027620;28;20234;-55
2023/03/13 12:29:36;;;;;;;20.10;5.15;;;14.50;99.90;;;;;;5008309;28;20416;-58
2023/03/13 12:32:23;;;;;;;21.30;4.75;;;14.40;99.90;;;;;;5022659;28;20045;-57
2023/03/13 12:35:00;;;;;;;23.00;5.28;;;14.30;99.90;;;;;;5018289;28;20123;-57
2023/03/13 12:37:41;;;;;;;26.85;4.57;;;14.30;99.90;;;;;;5027337;28;20037;-55
2023/03/13 12:40:28;;;;;;;16.88;4.35;;;14.40;99.90;;;;;;5021142;28;20064;-56
2023/03/13 12:43:04;;;;;;;19.50;5.32;;;14.40;99.90;;;;;;5022452;28;20416;-56
2023/03/13 12:45:32;;;;;;;17.27;4.65;;;14.50;99.90;;;;;;5022159;28;20111;-53
2023/03/13 12:48:04;;;;;;;22.15;4.72;;;14.60;99.90;;;;;;5026731;28;20274;-55
2023/03/13 12:50:42;;;;;;;23.58;5.40;;;14.50;99.90;;;;;;5026109;28;20466;-57
2023/03/13 12:53:35;;;;;;;26.65;5.53;;;14.40;99.90;;;;;;5026922;28;20388;-56